sensor_id;sensor_type;location;lat;lon;timestamp;pressure;altitude;pressure_sealevel;temperature;humidity
13033;BME280;6583;42.632;23.298;2022-12-18T00:01:15;71457.19;;;-146.40;90.82
13033;BME280;6583;42.632;23.298;2022-12-18T00:03:43;71453.16;;;-146.40;90.80
13033;BME280;6583;42.632;23.298;2022-12-18T00:06:10;71463.28;;;-146.40;90.87
13033;BME280;6583;42.632;23.298;2022-12-18T00:08:36;71467.31;;;-146.40;90.73
13033;BME280;6583;42.632;23.298;2022-12-18T00:11:04;71479.47;;;-146.40;90.77
13033;BME280;6583;42.632;23.298;2022-12-18T00:13:32;71475.41;;;-146.40;90.77
13033;BME280;6583;42.632;23.298;2022-12-18T00:16:01;71475.41;;;-146.40;91.04
13033;BME280;6583;42.632;23.298;2022-12-18T00:18:28;71485.53;;;-146.40;90.92
13033;BME280;6583;42.632;23.298;2022-12-18T00:20:58;71509.81;;;-146.40;91.05
13033;BME280;6583;42.632;23.298;2022-12-18T00:23:25;71513.88;;;-146.40;91.25
13033;BME280;6583;42.632;23.298;2022-12-18T00:25:52;71538.16;;;-146.40;91.62
13033;BME280;6583;42.632;23.298;2022-12-18T00:28:18;71526.00;;;-146.40;92.19
13033;BME280;6583;42.632;23.298;2022-12-18T00:30:46;71526.00;;;-146.40;92.28
13033;BME280;6583;42.632;23.298;2022-12-18T00:33:16;71517.91;;;-146.40;92.57
13033;BME280;6583;42.632;23.298;2022-12-18T00:35:43;71505.78;;;-146.40;92.03
13033;BME280;6583;42.632;23.298;2022-12-18T00:38:09;71507.78;;;-146.40;91.83
13033;BME280;6583;42.632;23.298;2022-12-18T00:40:36;71513.88;;;-146.40;90.26
13033;BME280;6583;42.632;23.298;2022-12-18T00:43:03;71521.97;;;-146.40;89.22
13033;BME280;6583;42.632;23.298;2022-12-18T00:45:30;71534.09;;;-146.40;89.45
13033;BME280;6583;42.632;23.298;2022-12-18T00:47:58;71542.19;;;-146.40;89.99
13033;BME280;6583;42.632;23.298;2022-12-18T00:50:25;71554.34;;;-146.40;89.71
13033;BME280;6583;42.632;23.298;2022-12-18T00:52:52;71570.53;;;-146.40;89.91
13033;BME280;6583;42.632;23.298;2022-12-18T00:55:18;71578.63;;;-146.40;88.89
13033;BME280;6583;42.632;23.298;2022-12-18T00:57:45;71588.75;;;-146.40;89.23
13033;BME280;6583;42.632;23.298;2022-12-18T01:00:14;71580.66;;;-146.40;89.97
13033;BME280;6583;42.632;23.298;2022-12-18T01:02:42;71596.84;;;-146.40;90.09
13033;BME280;6583;42.632;23.298;2022-12-18T01:05:11;71594.81;;;-146.40;90.28
13033;BME280;6583;42.632;23.298;2022-12-18T01:07:38;71606.97;;;-146.40;90.09
13033;BME280;6583;42.632;23.298;2022-12-18T01:10:06;71606.97;;;-146.40;90.71
13033;BME280;6583;42.632;23.298;2022-12-18T01:12:33;71625.19;;;-146.40;90.17
13033;BME280;6583;42.632;23.298;2022-12-18T01:14:59;71625.19;;;-146.40;90.17
13033;BME280;6583;42.632;23.298;2022-12-18T01:17:26;71643.41;;;-146.40;90.88
13033;BME280;6583;42.632;23.298;2022-12-18T01:19:53;71655.53;;;-146.40;91.23
13033;BME280;6583;42.632;23.298;2022-12-18T01:22:21;71651.50;;;-146.40;91.43
13033;BME280;6583;42.632;23.298;2022-12-18T01:24:47;71663.63;;;-146.40;91.05
13033;BME280;6583;42.632;23.298;2022-12-18T01:27:14;71696.00;;;-146.40;91.21
13033;BME280;6583;42.632;23.298;2022-12-18T01:29:40;71696.00;;;-146.40;91.60
13033;BME280;6583;42.632;23.298;2022-12-18T01:32:07;71712.22;;;-146.40;92.04
13033;BME280;6583;42.632;23.298;2022-12-18T01:34:35;71726.38;;;-146.40;92.49
13033;BME280;6583;42.632;23.298;2022-12-18T01:37:02;71704.09;;;-146.40;92.13
13033;BME280;6583;42.632;23.298;2022-12-18T01:39:31;71702.09;;;-146.40;92.48
13033;BME280;6583;42.632;23.298;2022-12-18T01:41:58;71704.09;;;-146.40;91.86
13033;BME280;6583;42.632;23.298;2022-12-18T01:45:00;71698.03;;;-146.40;91.26
13033;BME280;6583;42.632;23.298;2022-12-18T01:47:32;71691.97;;;-146.40;90.97
13033;BME280;6583;42.632;23.298;2022-12-18T01:50:03;71710.19;;;-146.40;89.86
13033;BME280;6583;42.632;23.298;2022-12-18T01:52:31;71702.09;;;-146.40;90.25
13033;BME280;6583;42.632;23.298;2022-12-18T01:55:01;71706.13;;;-146.40;90.17
13033;BME280;6583;42.632;23.298;2022-12-18T01:57:32;71700.06;;;-146.40;89.75
13033;BME280;6583;42.632;23.298;2022-12-18T02:00:02;71687.91;;;-146.40;90.52
13033;BME280;6583;42.632;23.298;2022-12-18T02:02:30;71728.41;;;-146.40;89.00
13033;BME280;6583;42.632;23.298;2022-12-18T02:04:56;71728.41;;;-146.40;89.77
13033;BME280;6583;42.632;23.298;2022-12-18T02:07:30;71726.38;;;-146.40;89.42
13033;BME280;6583;42.632;23.298;2022-12-18T02:10:02;71732.44;;;-146.40;89.00
13033;BME280;6583;42.632;23.298;2022-12-18T02:12:36;71736.50;;;-146.40;90.26
13033;BME280;6583;42.632;23.298;2022-12-18T02:15:12;71724.34;;;-146.40;90.29
13033;BME280;6583;42.632;23.298;2022-12-18T02:17:45;71722.31;;;-146.40;90.50
13033;BME280;6583;42.632;23.298;2022-12-18T02:20:18;71728.41;;;-146.40;90.06
13033;BME280;6583;42.632;23.298;2022-12-18T02:23:04;71734.47;;;-146.40;89.19
13033;BME280;6583;42.632;23.298;2022-12-18T02:26:04;71720.31;;;-146.40;90.26
13033;BME280;6583;42.632;23.298;2022-12-18T02:28:36;71724.34;;;-146.40;90.80
13033;BME280;6583;42.632;23.298;2022-12-18T02:31:07;71718.28;;;-146.40;89.51
13033;BME280;6583;42.632;23.298;2022-12-18T02:33:37;71724.34;;;-146.40;89.63
13033;BME280;6583;42.632;23.298;2022-12-18T02:36:06;71728.41;;;-146.40;89.20
13033;BME280;6583;42.632;23.298;2022-12-18T02:38:35;71744.59;;;-146.40;88.10
13033;BME280;6583;42.632;23.298;2022-12-18T02:41:04;71750.66;;;-146.40;88.52
13033;BME280;6583;42.632;23.298;2022-12-18T02:43:31;71752.69;;;-146.40;88.49
13033;BME280;6583;42.632;23.298;2022-12-18T02:46:00;71772.94;;;-146.40;88.34
13033;BME280;6583;42.632;23.298;2022-12-18T02:48:29;71756.72;;;-146.40;88.81
13033;BME280;6583;42.632;23.298;2022-12-18T02:51:02;71764.81;;;-146.40;88.77
13033;BME280;6583;42.632;23.298;2022-12-18T02:53:35;71772.94;;;-146.40;88.47
13033;BME280;6583;42.632;23.298;2022-12-18T02:56:07;71776.97;;;-146.40;87.98
13033;BME280;6583;42.632;23.298;2022-12-18T02:58:41;71791.13;;;-146.40;88.52
13033;BME280;6583;42.632;23.298;2022-12-18T03:01:15;71797.22;;;-146.40;87.73
13033;BME280;6583;42.632;23.298;2022-12-18T03:03:46;71789.13;;;-146.40;88.78
13033;BME280;6583;42.632;23.298;2022-12-18T03:06:20;71793.16;;;-146.40;88.36
13033;BME280;6583;42.632;23.298;2022-12-18T03:08:52;71803.28;;;-146.40;89.24
13033;BME280;6583;42.632;23.298;2022-12-18T03:11:22;71839.72;;;-146.40;88.78
13033;BME280;6583;42.632;23.298;2022-12-18T03:14:09;71837.69;;;-146.40;89.51
13033;BME280;6583;42.632;23.298;2022-12-18T03:16:36;71833.66;;;-146.40;89.84
13033;BME280;6583;42.632;23.298;2022-12-18T03:19:07;71821.50;;;-146.40;90.23
13033;BME280;6583;42.632;23.298;2022-12-18T03:21:42;71833.66;;;-146.40;90.02
13033;BME280;6583;42.632;23.298;2022-12-18T03:24:10;71813.41;;;-146.40;89.87
13033;BME280;6583;42.632;23.298;2022-12-18T03:26:42;71819.47;;;-146.40;89.90
13033;BME280;6583;42.632;23.298;2022-12-18T03:29:12;71813.41;;;-146.40;90.04
13033;BME280;6583;42.632;23.298;2022-12-18T03:31:42;71825.53;;;-146.40;89.38
13033;BME280;6583;42.632;23.298;2022-12-18T03:34:14;71817.44;;;-146.40;88.86
13033;BME280;6583;42.632;23.298;2022-12-18T03:36:43;71821.50;;;-146.40;88.92
13033;BME280;6583;42.632;23.298;2022-12-18T03:39:10;71827.56;;;-146.40;88.28
13033;BME280;6583;42.632;23.298;2022-12-18T03:41:43;71833.66;;;-146.40;87.65
13033;BME280;6583;42.632;23.298;2022-12-18T03:44:12;71827.56;;;-146.40;86.46
13033;BME280;6583;42.632;23.298;2022-12-18T03:46:46;71829.59;;;-146.40;86.92
13033;BME280;6583;42.632;23.298;2022-12-18T03:49:21;71845.78;;;-146.40;85.89
13033;BME280;6583;42.632;23.298;2022-12-18T03:51:52;71837.69;;;-146.40;86.17
13033;BME280;6583;42.632;23.298;2022-12-18T03:54:22;71855.91;;;-146.40;86.18
13033;BME280;6583;42.632;23.298;2022-12-18T03:56:58;71849.84;;;-146.40;86.51
13033;BME280;6583;42.632;23.298;2022-12-18T03:59:27;71855.91;;;-146.40;86.63
13033;BME280;6583;42.632;23.298;2022-12-18T04:01:56;71857.94;;;-146.40;85.92
13033;BME280;6583;42.632;23.298;2022-12-18T04:04:25;71859.97;;;-146.40;86.22
13033;BME280;6583;42.632;23.298;2022-12-18T04:06:54;71876.16;;;-146.40;85.69
13033;BME280;6583;42.632;23.298;2022-12-18T04:09:21;71874.13;;;-146.40;86.23
13033;BME280;6583;42.632;23.298;2022-12-18T04:11:48;71892.34;;;-146.40;87.03
13033;BME280;6583;42.632;23.298;2022-12-18T04:14:16;71910.56;;;-146.40;86.30
13033;BME280;6583;42.632;23.298;2022-12-18T04:16:42;71910.56;;;-146.40;86.28
13033;BME280;6583;42.632;23.298;2022-12-18T04:19:09;71926.75;;;-146.40;86.25
13033;BME280;6583;42.632;23.298;2022-12-18T04:21:36;71922.69;;;-146.40;86.38
13033;BME280;6583;42.632;23.298;2022-12-18T04:24:03;71942.94;;;-146.40;86.59
13033;BME280;6583;42.632;23.298;2022-12-18T04:26:30;71955.09;;;-146.40;86.94
13033;BME280;6583;42.632;23.298;2022-12-18T04:28:56;71959.13;;;-146.40;86.56
13033;BME280;6583;42.632;23.298;2022-12-18T04:31:24;71961.16;;;-146.40;86.71
13033;BME280;6583;42.632;23.298;2022-12-18T04:33:51;71953.06;;;-146.40;87.14
13033;BME280;6583;42.632;23.298;2022-12-18T04:36:18;71959.13;;;-146.40;86.08
13033;BME280;6583;42.632;23.298;2022-12-18T04:38:44;71967.22;;;-146.40;86.18
13033;BME280;6583;42.632;23.298;2022-12-18T04:41:13;71963.19;;;-146.40;86.81
13033;BME280;6583;42.632;23.298;2022-12-18T04:43:39;71959.13;;;-146.40;85.50
13033;BME280;6583;42.632;23.298;2022-12-18T04:46:07;71975.31;;;-146.40;84.39
13033;BME280;6583;42.632;23.298;2022-12-18T04:48:36;71985.44;;;-146.40;84.19
13033;BME280;6583;42.632;23.298;2022-12-18T04:51:04;71979.38;;;-146.40;85.26
13033;BME280;6583;42.632;23.298;2022-12-18T04:53:31;71983.41;;;-146.40;85.19
13033;BME280;6583;42.632;23.298;2022-12-18T04:56:05;71987.47;;;-146.40;84.89
13033;BME280;6583;42.632;23.298;2022-12-18T04:58:32;71999.63;;;-146.40;83.67
13033;BME280;6583;42.632;23.298;2022-12-18T05:00:58;71993.53;;;-146.40;84.78
13033;BME280;6583;42.632;23.298;2022-12-18T05:03:25;71997.59;;;-146.40;84.07
13033;BME280;6583;42.632;23.298;2022-12-18T05:05:53;71999.63;;;-146.40;84.34
13033;BME280;6583;42.632;23.298;2022-12-18T05:08:20;71999.63;;;-146.40;84.34
13033;BME280;6583;42.632;23.298;2022-12-18T05:10:46;72011.75;;;-146.40;83.66
13033;BME280;6583;42.632;23.298;2022-12-18T05:13:13;72017.84;;;-146.40;83.51
13033;BME280;6583;42.632;23.298;2022-12-18T05:15:40;72007.72;;;-146.40;83.94
13033;BME280;6583;42.632;23.298;2022-12-18T05:18:08;72027.94;;;-146.40;83.55
13033;BME280;6583;42.632;23.298;2022-12-18T05:20:34;72023.91;;;-146.40;83.91
13033;BME280;6583;42.632;23.298;2022-12-18T05:23:02;72023.91;;;-146.40;83.39
13033;BME280;6583;42.632;23.298;2022-12-18T05:25:29;72021.88;;;-146.40;83.59
13033;BME280;6583;42.632;23.298;2022-12-18T05:27:56;72023.91;;;-146.40;83.22
13033;BME280;6583;42.632;23.298;2022-12-18T05:30:22;72025.94;;;-146.40;82.57
13033;BME280;6583;42.632;23.298;2022-12-18T05:32:49;72023.91;;;-146.40;83.12
13033;BME280;6583;42.632;23.298;2022-12-18T05:35:16;72034.03;;;-146.40;81.63
13033;BME280;6583;42.632;23.298;2022-12-18T05:37:42;72017.84;;;-146.40;82.78
13033;BME280;6583;42.632;23.298;2022-12-18T05:40:12;72015.81;;;-146.40;83.45
13033;BME280;6583;42.632;23.298;2022-12-18T05:42:38;72013.78;;;-146.40;82.97
13033;BME280;6583;42.632;23.298;2022-12-18T05:45:06;72015.81;;;-146.40;82.07
13033;BME280;6583;42.632;23.298;2022-12-18T05:47:33;72007.72;;;-146.40;81.95
13033;BME280;6583;42.632;23.298;2022-12-18T05:49:59;72015.81;;;-146.40;79.95
13033;BME280;6583;42.632;23.298;2022-12-18T05:52:26;72013.78;;;-146.40;80.02
13033;BME280;6583;42.632;23.298;2022-12-18T05:54:53;72019.84;;;-146.40;79.78
13033;BME280;6583;42.632;23.298;2022-12-18T05:57:21;72040.09;;;-146.40;81.03
13033;BME280;6583;42.632;23.298;2022-12-18T05:59:47;72032.00;;;-146.40;81.21
13033;BME280;6583;42.632;23.298;2022-12-18T06:02:14;72052.25;;;-146.40;81.27
13033;BME280;6583;42.632;23.298;2022-12-18T06:04:40;72056.28;;;-146.40;81.96
13033;BME280;6583;42.632;23.298;2022-12-18T06:07:07;72066.41;;;-146.40;81.93
13033;BME280;6583;42.632;23.298;2022-12-18T06:09:34;72064.38;;;-146.40;82.36
13033;BME280;6583;42.632;23.298;2022-12-18T06:12:00;72072.47;;;-146.40;81.17
13033;BME280;6583;42.632;23.298;2022-12-18T06:14:28;72068.44;;;-146.40;82.07
13033;BME280;6583;42.632;23.298;2022-12-18T06:16:55;72070.47;;;-146.40;82.14
13033;BME280;6583;42.632;23.298;2022-12-18T06:19:22;72080.56;;;-146.40;81.31
13033;BME280;6583;42.632;23.298;2022-12-18T06:21:48;72078.56;;;-146.40;81.51
13033;BME280;6583;42.632;23.298;2022-12-18T06:24:16;72062.38;;;-146.40;82.15
13033;BME280;6583;42.632;23.298;2022-12-18T06:26:42;72066.41;;;-146.40;82.10
13033;BME280;6583;42.632;23.298;2022-12-18T06:29:09;72066.41;;;-146.40;81.42
13033;BME280;6583;42.632;23.298;2022-12-18T06:31:37;72070.47;;;-146.40;79.27
13033;BME280;6583;42.632;23.298;2022-12-18T06:34:04;72072.47;;;-146.40;78.45
13033;BME280;6583;42.632;23.298;2022-12-18T06:36:31;72070.47;;;-146.40;78.96
13033;BME280;6583;42.632;23.298;2022-12-18T06:38:58;72072.47;;;-146.40;77.88
13033;BME280;6583;42.632;23.298;2022-12-18T06:41:25;72078.56;;;-146.40;78.00
13033;BME280;6583;42.632;23.298;2022-12-18T06:43:52;72088.69;;;-146.40;77.75
13033;BME280;6583;42.632;23.298;2022-12-18T06:46:18;72096.78;;;-146.40;77.97
13033;BME280;6583;42.632;23.298;2022-12-18T06:48:48;72090.69;;;-146.40;78.13
13033;BME280;6583;42.632;23.298;2022-12-18T06:51:17;72104.88;;;-146.40;77.72
13033;BME280;6583;42.632;23.298;2022-12-18T06:53:44;72096.78;;;-146.40;77.25
13033;BME280;6583;42.632;23.298;2022-12-18T06:56:11;72108.91;;;-146.40;76.71
13033;BME280;6583;42.632;23.298;2022-12-18T06:58:38;72100.81;;;-146.40;76.68
13033;BME280;6583;42.632;23.298;2022-12-18T07:01:07;72092.72;;;-146.40;77.21
13033;BME280;6583;42.632;23.298;2022-12-18T07:03:34;72092.72;;;-146.40;76.09
13033;BME280;6583;42.632;23.298;2022-12-18T07:06:02;72088.69;;;-146.40;75.97
13033;BME280;6583;42.632;23.298;2022-12-18T07:08:29;72092.72;;;-146.40;76.18
13033;BME280;6583;42.632;23.298;2022-12-18T07:10:56;72096.78;;;-146.40;75.95
13033;BME280;6583;42.632;23.298;2022-12-18T07:13:23;72080.56;;;-146.40;77.01
13033;BME280;6583;42.632;23.298;2022-12-18T07:15:50;72096.78;;;-146.40;74.40
13033;BME280;6583;42.632;23.298;2022-12-18T07:18:16;72104.88;;;-146.40;74.27
13033;BME280;6583;42.632;23.298;2022-12-18T07:20:43;72100.81;;;-146.40;75.32
13033;BME280;6583;42.632;23.298;2022-12-18T07:23:11;72100.81;;;-146.40;73.97
13033;BME280;6583;42.632;23.298;2022-12-18T07:25:38;72092.72;;;-146.40;75.05
13033;BME280;6583;42.632;23.298;2022-12-18T07:28:05;72096.78;;;-146.40;75.53
13033;BME280;6583;42.632;23.298;2022-12-18T07:30:31;72096.78;;;-146.40;74.90
13033;BME280;6583;42.632;23.298;2022-12-18T07:32:58;72117.00;;;-146.40;73.79
13033;BME280;6583;42.632;23.298;2022-12-18T07:35:25;72110.94;;;-146.40;75.10
13033;BME280;6583;42.632;23.298;2022-12-18T07:37:51;72117.00;;;-146.40;73.28
13033;BME280;6583;42.632;23.298;2022-12-18T07:40:19;72119.03;;;-146.40;73.68
13033;BME280;6583;42.632;23.298;2022-12-18T07:42:46;72133.22;;;-146.40;73.33
13033;BME280;6583;42.632;23.298;2022-12-18T07:45:13;72131.19;;;-146.40;73.17
13033;BME280;6583;42.632;23.298;2022-12-18T07:47:39;72141.31;;;-146.40;73.33
13033;BME280;6583;42.632;23.298;2022-12-18T07:50:07;72153.44;;;-146.40;73.39
13033;BME280;6583;42.632;23.298;2022-12-18T07:52:34;72157.50;;;-146.40;73.24
13033;BME280;6583;42.632;23.298;2022-12-18T07:55:01;72143.31;;;-146.40;75.10
13033;BME280;6583;42.632;23.298;2022-12-18T07:57:29;72149.41;;;-146.40;73.72
13033;BME280;6583;42.632;23.298;2022-12-18T07:59:56;72167.63;;;-146.40;73.19
13033;BME280;6583;42.632;23.298;2022-12-18T08:02:23;72157.50;;;-146.40;73.73
13033;BME280;6583;42.632;23.298;2022-12-18T08:04:49;72177.75;;;-146.40;72.40
13033;BME280;6583;42.632;23.298;2022-12-18T08:07:16;72181.78;;;-146.40;72.98
13033;BME280;6583;42.632;23.298;2022-12-18T08:09:43;72163.56;;;-146.40;74.53
13033;BME280;6583;42.632;23.298;2022-12-18T08:12:09;72177.75;;;-146.40;73.32
13033;BME280;6583;42.632;23.298;2022-12-18T08:14:37;72165.59;;;-146.40;74.92
13033;BME280;6583;42.632;23.298;2022-12-18T08:17:04;72183.81;;;-146.40;74.30
13033;BME280;6583;42.632;23.298;2022-12-18T08:19:31;72193.94;;;-146.40;74.51
13033;BME280;6583;42.632;23.298;2022-12-18T08:21:58;72206.06;;;-146.40;74.82
13033;BME280;6583;42.632;23.298;2022-12-18T08:24:25;72197.97;;;-146.40;75.10
13033;BME280;6583;42.632;23.298;2022-12-18T08:26:51;72214.19;;;-146.40;74.19
13033;BME280;6583;42.632;23.298;2022-12-18T08:29:18;72206.06;;;-146.40;74.80
13033;BME280;6583;42.632;23.298;2022-12-18T08:31:46;72210.13;;;-146.40;74.65
13033;BME280;6583;42.632;23.298;2022-12-18T08:34:13;72202.03;;;-146.40;74.06
13033;BME280;6583;42.632;23.298;2022-12-18T08:36:40;72214.19;;;-146.40;74.38
13033;BME280;6583;42.632;23.298;2022-12-18T08:39:06;72206.06;;;-146.40;73.90
13033;BME280;6583;42.632;23.298;2022-12-18T08:41:33;72197.97;;;-146.40;75.29
13033;BME280;6583;42.632;23.298;2022-12-18T08:44:00;72210.13;;;-146.40;74.16
13033;BME280;6583;42.632;23.298;2022-12-18T08:46:44;72202.03;;;-146.40;74.97
13033;BME280;6583;42.632;23.298;2022-12-18T08:49:12;72214.19;;;-146.40;74.67
13033;BME280;6583;42.632;23.298;2022-12-18T08:51:39;72204.06;;;-146.40;74.94
13033;BME280;6583;42.632;23.298;2022-12-18T08:54:06;72210.13;;;-146.40;74.27
13033;BME280;6583;42.632;23.298;2022-12-18T08:56:33;72206.06;;;-146.40;74.74
13033;BME280;6583;42.632;23.298;2022-12-18T08:59:00;72193.94;;;-146.40;75.88
13033;BME280;6583;42.632;23.298;2022-12-18T09:01:27;72197.97;;;-146.40;75.64
13033;BME280;6583;42.632;23.298;2022-12-18T09:03:53;72195.97;;;-146.40;75.09
13033;BME280;6583;42.632;23.298;2022-12-18T09:06:22;72183.81;;;-146.40;76.17
13033;BME280;6583;42.632;23.298;2022-12-18T09:08:49;72173.69;;;-146.40;76.70
13033;BME280;6583;42.632;23.298;2022-12-18T09:11:20;72181.78;;;-146.40;77.29
13033;BME280;6583;42.632;23.298;2022-12-18T09:13:47;72167.63;;;-146.40;77.24
13033;BME280;6583;42.632;23.298;2022-12-18T09:16:15;72165.59;;;-146.40;76.55
13033;BME280;6583;42.632;23.298;2022-12-18T09:18:41;72185.84;;;-146.40;76.59
13033;BME280;6583;42.632;23.298;2022-12-18T09:21:09;72210.13;;;-146.40;77.86
13033;BME280;6583;42.632;23.298;2022-12-18T09:23:38;72197.97;;;-146.40;78.66
13033;BME280;6583;42.632;23.298;2022-12-18T09:26:04;72234.41;;;-146.40;78.79
13033;BME280;6583;42.632;23.298;2022-12-18T09:28:31;72214.19;;;-146.40;78.91
13033;BME280;6583;42.632;23.298;2022-12-18T09:30:58;72218.22;;;-146.40;79.29
13033;BME280;6583;42.632;23.298;2022-12-18T09:33:25;72218.22;;;-146.40;79.31
13033;BME280;6583;42.632;23.298;2022-12-18T09:35:51;72214.19;;;-146.40;79.17
13033;BME280;6583;42.632;23.298;2022-12-18T09:38:19;72214.19;;;-146.40;79.45
13033;BME280;6583;42.632;23.298;2022-12-18T09:40:48;72224.28;;;-146.40;78.97
13033;BME280;6583;42.632;23.298;2022-12-18T09:43:18;72220.25;;;-146.40;79.90
13033;BME280;6583;42.632;23.298;2022-12-18T09:45:51;72218.22;;;-146.40;80.05
13033;BME280;6583;42.632;23.298;2022-12-18T09:48:23;72214.19;;;-146.40;79.46
13033;BME280;6583;42.632;23.298;2022-12-18T09:50:53;72197.97;;;-146.40;79.35
13033;BME280;6583;42.632;23.298;2022-12-18T09:53:25;72185.84;;;-146.40;79.43
13033;BME280;6583;42.632;23.298;2022-12-18T09:55:56;72181.78;;;-146.40;79.03
13033;BME280;6583;42.632;23.298;2022-12-18T09:58:26;72185.84;;;-146.40;78.71
13033;BME280;6583;42.632;23.298;2022-12-18T10:00:54;72193.94;;;-146.40;76.96
13033;BME280;6583;42.632;23.298;2022-12-18T10:03:21;72189.88;;;-146.40;77.03
13033;BME280;6583;42.632;23.298;2022-12-18T10:05:56;72173.69;;;-146.40;76.82
13033;BME280;6583;42.632;23.298;2022-12-18T10:08:34;72169.66;;;-146.40;77.90
13033;BME280;6583;42.632;23.298;2022-12-18T10:11:21;72139.28;;;-146.40;77.90
13033;BME280;6583;42.632;23.298;2022-12-18T10:13:58;72127.13;;;-146.40;77.27
13033;BME280;6583;42.632;23.298;2022-12-18T10:16:35;72125.09;;;-146.40;74.57
13033;BME280;6583;42.632;23.298;2022-12-18T10:19:16;72141.31;;;-146.40;74.32
13033;BME280;6583;42.632;23.298;2022-12-18T10:21:50;72159.53;;;-146.40;74.09
13033;BME280;6583;42.632;23.298;2022-12-18T10:24:24;72167.63;;;-146.40;74.24
13033;BME280;6583;42.632;23.298;2022-12-18T10:26:55;72157.50;;;-146.40;75.59
13033;BME280;6583;42.632;23.298;2022-12-18T10:29:27;72193.94;;;-146.40;73.71
13033;BME280;6583;42.632;23.298;2022-12-18T10:31:53;72191.91;;;-146.40;73.39
13033;BME280;6583;42.632;23.298;2022-12-18T10:34:20;72189.88;;;-146.40;73.79
13033;BME280;6583;42.632;23.298;2022-12-18T10:36:47;72200.00;;;-146.40;73.33
13033;BME280;6583;42.632;23.298;2022-12-18T10:39:16;72220.25;;;-146.40;73.55
13033;BME280;6583;42.632;23.298;2022-12-18T10:41:43;72214.19;;;-146.40;73.68
13033;BME280;6583;42.632;23.298;2022-12-18T10:44:16;72226.31;;;-146.40;74.11
13033;BME280;6583;42.632;23.298;2022-12-18T10:46:44;72230.38;;;-146.40;74.20
13033;BME280;6583;42.632;23.298;2022-12-18T10:49:20;72234.41;;;-146.40;74.69
13033;BME280;6583;42.632;23.298;2022-12-18T10:51:48;72236.44;;;-146.40;73.98
13033;BME280;6583;42.632;23.298;2022-12-18T10:54:17;72230.38;;;-146.40;74.05
13033;BME280;6583;42.632;23.298;2022-12-18T10:56:44;72220.25;;;-146.40;75.21
13033;BME280;6583;42.632;23.298;2022-12-18T10:59:14;72224.28;;;-146.40;73.64
13033;BME280;6583;42.632;23.298;2022-12-18T11:01:50;72210.13;;;-146.40;73.22
13033;BME280;6583;42.632;23.298;2022-12-18T11:04:20;72193.94;;;-146.40;74.29
13033;BME280;6583;42.632;23.298;2022-12-18T11:07:08;72193.94;;;-146.40;74.00
13033;BME280;6583;42.632;23.298;2022-12-18T11:09:38;72197.97;;;-146.40;72.22
13033;BME280;6583;42.632;23.298;2022-12-18T11:12:14;72208.09;;;-146.40;72.36
13033;BME280;6583;42.632;23.298;2022-12-18T11:14:46;72214.19;;;-146.40;70.93
13033;BME280;6583;42.632;23.298;2022-12-18T11:17:18;72197.97;;;-146.40;71.89
13033;BME280;6583;42.632;23.298;2022-12-18T11:19:52;72214.19;;;-146.40;69.17
13033;BME280;6583;42.632;23.298;2022-12-18T11:22:21;72202.03;;;-146.40;69.94
13033;BME280;6583;42.632;23.298;2022-12-18T11:24:54;72202.03;;;-146.40;68.27
13033;BME280;6583;42.632;23.298;2022-12-18T11:27:22;72197.97;;;-146.40;66.98
13033;BME280;6583;42.632;23.298;2022-12-18T11:29:51;72191.91;;;-146.40;65.32
13033;BME280;6583;42.632;23.298;2022-12-18T11:32:26;72179.75;;;-146.40;67.15
13033;BME280;6583;42.632;23.298;2022-12-18T11:34:58;72169.66;;;-146.40;67.54
13033;BME280;6583;42.632;23.298;2022-12-18T11:37:27;72177.75;;;-146.40;65.34
13033;BME280;6583;42.632;23.298;2022-12-18T11:39:57;72189.88;;;-146.40;65.49
13033;BME280;6583;42.632;23.298;2022-12-18T11:42:30;72197.97;;;-146.40;61.46
13033;BME280;6583;42.632;23.298;2022-12-18T11:45:17;72200.00;;;-146.40;62.82
13033;BME280;6583;42.632;23.298;2022-12-18T11:47:50;72234.41;;;-146.40;62.99
13033;BME280;6583;42.632;23.298;2022-12-18T11:50:21;72218.22;;;-146.40;63.66
13033;BME280;6583;42.632;23.298;2022-12-18T11:52:50;72218.22;;;-146.40;63.92
13033;BME280;6583;42.632;23.298;2022-12-18T11:55:28;72242.50;;;-146.40;62.68
13033;BME280;6583;42.632;23.298;2022-12-18T11:58:02;72238.47;;;-146.40;62.35
13033;BME280;6583;42.632;23.298;2022-12-18T12:00:36;72206.06;;;-146.40;64.47
13033;BME280;6583;42.632;23.298;2022-12-18T12:03:22;72206.06;;;-146.40;63.89
13033;BME280;6583;42.632;23.298;2022-12-18T12:06:00;72206.06;;;-146.40;64.08
13033;BME280;6583;42.632;23.298;2022-12-18T12:08:38;72216.19;;;-146.40;63.87
13033;BME280;6583;42.632;23.298;2022-12-18T12:11:15;72214.19;;;-146.40;63.77
13033;BME280;6583;42.632;23.298;2022-12-18T12:14:03;72224.28;;;-146.40;63.90
13033;BME280;6583;42.632;23.298;2022-12-18T12:16:37;72208.09;;;-146.40;66.12
13033;BME280;6583;42.632;23.298;2022-12-18T12:19:19;72218.22;;;-146.40;65.31
13033;BME280;6583;42.632;23.298;2022-12-18T12:22:02;72220.25;;;-146.40;65.20
13033;BME280;6583;42.632;23.298;2022-12-18T12:24:39;72197.97;;;-146.40;65.92
13033;BME280;6583;42.632;23.298;2022-12-18T12:27:16;72185.84;;;-146.40;66.73
13033;BME280;6583;42.632;23.298;2022-12-18T12:29:53;72185.84;;;-146.40;65.63
13033;BME280;6583;42.632;23.298;2022-12-18T12:32:38;72173.69;;;-146.40;66.46
13033;BME280;6583;42.632;23.298;2022-12-18T12:35:21;72177.75;;;-146.40;64.83
13033;BME280;6583;42.632;23.298;2022-12-18T12:37:58;72165.59;;;-146.40;65.53
13033;BME280;6583;42.632;23.298;2022-12-18T12:40:34;72163.56;;;-146.40;66.63
13033;BME280;6583;42.632;23.298;2022-12-18T12:43:03;72169.66;;;-146.40;64.25
13033;BME280;6583;42.632;23.298;2022-12-18T12:45:42;72197.97;;;-146.40;63.92
13033;BME280;6583;42.632;23.298;2022-12-18T12:48:18;72202.03;;;-146.40;63.90
13033;BME280;6583;42.632;23.298;2022-12-18T12:50:49;72214.19;;;-146.40;64.85
13033;BME280;6583;42.632;23.298;2022-12-18T12:53:25;72216.19;;;-146.40;65.48